Pagrindinis puslapis
METAR-TAF:

METAR-TAF

Oro uostai :

Bogota, Kolumbija

platuma: 04-43N, ilguma: 074-09W, Aukštis: 2547 m

Dabartinis oras

Ataskaita buvo paskelbta 10 minutes, ne 00:00 UTC
Ramus vėjas
Temperatūra 13°C
Drėgmė 82%
Slėgis 1024 hPa
Matomumas 10 km arba daugiau
Mažai debesys ne aukštis 2000 ft
Išsisklaidę debesys ne aukštis 20000 ft

METAR: SKBO 200000Z 00000KT 9999 FEW020 SCT200 13/10 A3024 NOSIG

Laikas: 19:10 (00:10 UTC)

Prognozė

Ataskaita buvo paskelbta 1 valandą ir 40 minutes, ne 22:30 UTC
Prognozė galioja nuo 20 metu 00 UTC su 20 metu 24 UTC
Vėjas 5 kt iš Šiaurės Rytų
Matomumas 10 km arba daugiau
Išsisklaidę debesys ne aukštis 2300 ft
Su prošvaistėmis ne aukštis 20000 ft
Tapsmas
nuo 20 metu 14 UTC su 20 metu 16 UTC
Vėjas 10 kt iš Vakarų
Mažai debesys ne aukštis 2500 ft
Išsisklaidę debesys ne aukštis 10000 ft

TAF: SKBO 192230Z 2000/2024 04005KT 9999 SCT023 BKN200 BECMG 2014/2016 26010KT FEW025 SCT100 TX20/2018Z TN09/2009Z

Orai ataskaitas ir orų prognozės (METAR, TAF).

turimą stotys yra geltonos ir raudonos taškus žemėlapyje.

Perkelti pele per norėdami pamatyti stoties vardą.

Tada spustelėkite, norėdami matyti oro stebėjimo ir prognozės.

Norėdami pakeisti žemėlapį: spustelėkite ant žalios mygtukų su juodo kryžiaus žemyn,; žalią mygtuką su brūkšneliu, jei norite nutolinti; arba žalių rodyklių gretimoms žemėlapius.


METAR-TAF: